New Harrisburg, Ohio
Current Conditions -  °F | °C
As of 9:53 AM on Wednesday 22 Oct 2014 (Local Time) from KPHD Reporting Station
Overcast Overcast  
Wind Chill: 45°   Ceiling: 1400
Heat Index: 49°   Visibility: 10mi
Dew Point: 44°   Wind: 9mph
Humidity: 83%   Direction: 340°NNW
Pressure: 30.21"   Gusts: NA
Location:  40.5653°N, 81.0724°W
Report Text: KPHD 221353Z AUTO 34008KT 10SM OVC014 09/07 A3021 RMK AO2 SLP233 T00940067
Loading
Personal Weather Stations






























Interactive Weather Map
Tropical Storm Tracking
New forecast layout! Learn more

10-Day Weather Forecast

Advertisements
Track Severe Weather on mobile